Mollusk, Virginia
Current Conditions -  °F | °C
As of 3:15 PM on Friday 31 Oct 2014 (Local Time) from KW75 Reporting Station
Scattered Clouds Scattered Clouds  
Wind Chill: 57°   Ceiling: Unl
Heat Index: 57°   Visibility: 10mi
Dew Point: 37°   Wind: 7mph
Humidity: 47%   Direction: 320°NW
Pressure: 29.85"   Gusts: NA
Location:  37.73°N, 76.54°W
Report Text: KW75 311915Z AUTO 32006KT 10SM SCT047 14/03 A2985 RMK AO1 T01400028
Loading
Personal Weather Stations






























Interactive Weather Map New forecast layout! Learn more

10-Day Weather Forecast

Advertisements
Track Severe Weather on mobile